createdAt,value
2018-05-09T00:01:01.576Z,12.37
2018-05-09T00:04:04.921Z,12.29
2018-05-09T00:07:08.183Z,12.12
2018-05-09T00:10:11.450Z,12.26
2018-05-09T00:13:15.585Z,12.21
2018-05-09T00:16:18.846Z,11.99
2018-05-09T00:19:22.093Z,11.91
2018-05-09T00:22:25.378Z,11.76
2018-05-09T00:25:28.638Z,11.68
2018-05-09T00:28:32.658Z,11.64
2018-05-09T00:31:36.683Z,11.67
2018-05-09T00:34:40.798Z,11.54
2018-05-09T00:37:44.810Z,11.63
2018-05-09T00:40:48.259Z,11.70
2018-05-09T00:43:51.548Z,11.56
2018-05-09T00:46:54.797Z,11.55
2018-05-09T00:49:58.055Z,11.47
2018-05-09T00:53:01.350Z,11.46
2018-05-09T00:56:06.571Z,11.52
2018-05-09T00:59:09.825Z,11.42
2018-05-09T01:02:13.084Z,11.40
2018-05-09T01:05:16.362Z,11.22
2018-05-09T01:08:19.620Z,11.12
2018-05-09T01:11:24.380Z,10.78
2018-05-09T01:14:27.671Z,10.58
2018-05-09T01:17:31.702Z,10.54
2018-05-09T01:20:34.953Z,10.48
2018-05-09T01:23:38.205Z,10.45
2018-05-09T01:26:42.227Z,10.43
2018-05-09T01:29:45.526Z,10.45
2018-05-09T01:32:48.769Z,10.46
2018-05-09T01:35:52.034Z,10.05
2018-05-09T01:38:55.283Z,10.14
2018-05-09T01:41:58.554Z,10.12
2018-05-09T01:45:01.807Z,10.23
2018-05-09T01:48:05.134Z,10.20
2018-05-09T01:51:08.402Z,10.19
2018-05-09T01:54:11.687Z,10.32
2018-05-09T01:57:15.712Z,10.32
2018-05-09T02:00:18.964Z,10.31
2018-05-09T02:03:22.225Z,10.16
2018-05-09T02:06:25.483Z,9.95
2018-05-09T02:09:29.513Z,9.99
2018-05-09T02:12:32.753Z,9.91
2018-05-09T02:15:36.172Z,9.58
2018-05-09T02:18:39.403Z,9.42
2018-05-09T02:21:42.657Z,9.18
2018-05-09T02:24:45.912Z,9.10
2018-05-09T02:27:49.203Z,9.07
2018-05-09T02:30:52.482Z,9.25
2018-05-09T02:33:56.714Z,9.32
2018-05-09T02:37:00.740Z,9.36
2018-05-09T02:40:03.996Z,9.37
2018-05-09T02:43:07.307Z,9.52
2018-05-09T02:46:11.323Z,9.60
2018-05-09T02:49:15.344Z,9.45
2018-05-09T02:52:19.378Z,9.46
2018-05-09T02:55:22.630Z,9.50
2018-05-09T02:58:25.880Z,9.47
2018-05-09T03:01:29.150Z,9.37
2018-05-09T03:04:32.681Z,9.36
2018-05-09T03:07:35.929Z,9.27
2018-05-09T03:10:39.949Z,8.85
2018-05-09T03:13:43.981Z,8.88
2018-05-09T03:16:47.236Z,9.14
2018-05-09T03:19:50.486Z,9.21
2018-05-09T03:22:53.746Z,9.16
2018-05-09T03:25:56.993Z,9.13
2018-05-09T03:29:00.249Z,9.25
2018-05-09T03:32:04.306Z,9.21
2018-05-09T03:35:07.554Z,9.24
2018-05-09T03:38:10.800Z,9.28
2018-05-09T03:41:14.169Z,9.20
2018-05-09T03:44:18.173Z,9.24
2018-05-09T03:47:22.213Z,9.07
2018-05-09T03:50:26.233Z,8.88
2018-05-09T03:53:30.255Z,8.76
2018-05-09T03:56:33.649Z,8.71
2018-05-09T03:59:37.666Z,8.80
2018-05-09T04:02:59.439Z,8.79
2018-05-09T04:06:20.435Z,8.69
2018-05-09T04:09:45.030Z,8.62
2018-05-09T04:12:48.281Z,8.81
2018-05-09T04:15:51.540Z,8.95
2018-05-09T04:18:55.437Z,8.99
2018-05-09T04:21:59.490Z,9.13
2018-05-09T04:25:31.349Z,9.05
2018-05-09T04:28:40.008Z,8.82
2018-05-09T04:31:45.100Z,8.87
2018-05-09T04:34:49.211Z,8.84
2018-05-09T04:37:53.243Z,9.09
2018-05-09T04:40:57.346Z,9.22
2018-05-09T04:44:01.394Z,9.33
2018-05-09T04:47:04.698Z,9.52
2018-05-09T04:50:08.218Z,9.63
2018-05-09T04:53:11.471Z,9.68
2018-05-09T04:56:18.247Z,9.41
2018-05-09T04:59:21.506Z,9.24
2018-05-09T05:02:24.771Z,9.12
2018-05-09T05:05:28.918Z,9.51
2018-05-09T05:08:32.186Z,9.75
2018-05-09T05:11:35.500Z,9.94
2018-05-09T05:14:39.607Z,9.95
2018-05-09T05:17:42.906Z,10.16
2018-05-09T05:20:46.934Z,10.25
2018-05-09T05:23:50.954Z,10.42
2018-05-09T05:26:55.022Z,10.60
2018-05-09T05:29:58.292Z,10.64
2018-05-09T05:33:02.517Z,10.87
2018-05-09T05:36:05.783Z,11.02
2018-05-09T05:39:09.146Z,11.33
2018-05-09T05:42:12.524Z,11.17
2018-05-09T05:45:15.930Z,11.39
2018-05-09T05:48:19.113Z,11.53
2018-05-09T05:51:22.369Z,11.57
2018-05-09T05:54:25.616Z,12.11
2018-05-09T05:57:28.899Z,12.27
2018-05-09T06:00:32.161Z,12.99
2018-05-09T06:03:35.432Z,15.06
2018-05-09T06:06:38.718Z,15.78
2018-05-09T06:09:41.985Z,17.60
2018-05-09T06:12:45.243Z,18.19
2018-05-09T06:15:48.496Z,18.63
2018-05-09T06:18:52.518Z,16.94
2018-05-09T06:21:56.561Z,16.03
2018-05-09T06:24:59.821Z,17.30
2018-05-09T06:28:03.519Z,17.53
2018-05-09T06:31:06.781Z,16.67
2018-05-09T06:34:10.050Z,18.21
2018-05-09T06:37:13.363Z,19.06
2018-05-09T06:40:16.610Z,17.51
2018-05-09T06:43:19.935Z,19.07
2018-05-09T06:46:23.200Z,19.41
2018-05-09T06:49:26.452Z,18.72
2018-05-09T06:52:29.738Z,18.06
2018-05-09T06:55:33.030Z,17.59
2018-05-09T06:58:36.341Z,16.77
2018-05-09T07:01:39.618Z,18.54
2018-05-09T07:04:42.900Z,18.23
2018-05-09T07:07:46.931Z,18.89
2018-05-09T07:10:50.989Z,18.56
2018-05-09T07:13:54.261Z,19.50
2018-05-09T07:16:57.822Z,17.93
2018-05-09T07:20:01.070Z,17.20
2018-05-09T07:23:04.412Z,18.60
2018-05-09T07:26:07.652Z,19.48
2018-05-09T07:29:11.941Z,19.67
2018-05-09T07:32:15.213Z,18.96
2018-05-09T07:35:18.483Z,18.60
2018-05-09T07:38:22.604Z,18.88
2018-05-09T07:41:26.621Z,19.62
2018-05-09T07:44:29.972Z,20.23
2018-05-09T07:47:33.323Z,19.90
2018-05-09T07:50:36.600Z,19.86
2018-05-09T07:53:40.622Z,16.99
2018-05-09T07:56:44.783Z,16.99
2018-05-09T07:59:48.100Z,17.79
2018-05-09T08:02:51.383Z,17.69
2018-05-09T08:05:54.725Z,17.40
2018-05-09T08:08:57.954Z,17.36
2018-05-09T08:12:01.218Z,18.49
2018-05-09T08:15:04.610Z,18.48
2018-05-09T08:18:07.908Z,17.59
2018-05-09T08:21:11.200Z,18.43
2018-05-09T08:24:14.516Z,19.10
2018-05-09T08:27:17.816Z,18.16
2018-05-09T08:30:21.095Z,18.51
2018-05-09T08:33:24.436Z,18.85
2018-05-09T08:36:28.453Z,19.73
2018-05-09T08:39:31.714Z,19.74
2018-05-09T08:42:34.973Z,19.49
2018-05-09T08:45:38.223Z,19.73
2018-05-09T08:48:41.489Z,19.90
2018-05-09T08:51:44.749Z,20.40
2018-05-09T08:54:48.779Z,19.34
2018-05-09T08:57:52.803Z,19.56
2018-05-09T09:00:56.810Z,19.73
2018-05-09T09:04:00.076Z,18.84
2018-05-09T09:07:03.415Z,19.50
2018-05-09T09:10:07.435Z,19.18
2018-05-09T09:13:11.553Z,19.41
2018-05-09T09:16:15.575Z,18.89
2018-05-09T09:19:19.594Z,18.42
2018-05-09T09:22:22.850Z,18.24
2018-05-09T09:25:26.184Z,18.50
2018-05-09T09:28:30.232Z,18.53
2018-05-09T09:31:33.497Z,18.77
2018-05-09T09:34:37.515Z,18.27
2018-05-09T09:37:41.633Z,18.36
2018-05-09T09:40:45.763Z,18.73
2018-05-09T09:43:49.026Z,19.05
2018-05-09T09:46:52.418Z,20.21
2018-05-09T09:49:55.835Z,20.10
2018-05-09T09:52:59.102Z,20.39
2018-05-09T09:56:02.382Z,20.18
2018-05-09T09:59:05.641Z,19.54
2018-05-09T10:02:09.981Z,19.78
2018-05-09T10:05:13.290Z,19.15
2018-05-09T10:08:16.679Z,19.50
2018-05-09T10:11:19.942Z,19.93
2018-05-09T10:14:24.006Z,20.04
2018-05-09T10:17:27.261Z,19.92
2018-05-09T10:20:30.526Z,20.17
2018-05-09T10:23:34.722Z,19.60
2018-05-09T10:26:38.146Z,20.78
2018-05-09T10:29:41.427Z,20.36
2018-05-09T10:32:44.713Z,20.94
2018-05-09T10:35:47.966Z,20.92
2018-05-09T10:38:51.232Z,21.12
2018-05-09T10:41:54.557Z,20.87
2018-05-09T10:44:57.840Z,20.18
2018-05-09T10:48:01.167Z,20.06
2018-05-09T10:51:04.412Z,20.71
2018-05-09T10:54:07.795Z,21.18
2018-05-09T10:57:11.839Z,21.47
2018-05-09T11:00:15.114Z,21.17
2018-05-09T11:03:18.383Z,21.08
2018-05-09T11:06:22.444Z,20.81
2018-05-09T11:09:25.701Z,20.51
2018-05-09T11:12:29.032Z,20.62
2018-05-09T11:15:33.061Z,20.62
2018-05-09T11:21:39.806Z,20.54
2018-05-09T11:24:43.137Z,20.72
2018-05-09T11:27:48.248Z,20.60
2018-05-09T11:30:51.550Z,20.57
2018-05-09T11:33:54.851Z,20.37
2018-05-09T11:36:58.125Z,20.19
2018-05-09T11:40:01.634Z,20.44
2018-05-09T11:43:04.928Z,20.89
2018-05-09T11:46:08.205Z,20.59
2018-05-09T11:49:11.604Z,20.50
2018-05-09T11:52:14.853Z,20.06
2018-05-09T11:55:18.216Z,20.39
2018-05-09T11:58:21.515Z,20.50
2018-05-09T12:01:24.825Z,20.05
2018-05-09T12:04:28.108Z,20.24
2018-05-09T12:07:31.390Z,20.44
2018-05-09T12:10:35.541Z,21.17
2018-05-09T12:13:38.700Z,21.87
2018-05-09T12:16:45.314Z,21.43
2018-05-09T12:19:49.244Z,20.99
2018-05-09T12:22:52.514Z,20.85
2018-05-09T12:25:55.823Z,20.94
2018-05-09T12:28:59.117Z,20.95
2018-05-09T12:32:02.381Z,20.82
2018-05-09T12:35:06.511Z,21.55
2018-05-09T12:38:09.785Z,21.39
2018-05-09T12:41:13.838Z,21.00
2018-05-09T12:44:17.240Z,20.85
2018-05-09T12:47:20.506Z,21.17
2018-05-09T12:50:24.666Z,20.46
2018-05-09T12:53:28.254Z,20.41
2018-05-09T12:56:31.532Z,20.17
2018-05-09T12:59:35.579Z,20.03
2018-05-09T13:02:38.859Z,20.12
2018-05-09T13:05:42.142Z,20.09
2018-05-09T13:08:46.194Z,19.71
2018-05-09T13:11:49.590Z,19.68
2018-05-09T13:14:52.901Z,19.57
2018-05-09T13:17:56.171Z,19.31
2018-05-09T13:21:00.224Z,19.21
2018-05-09T13:24:04.723Z,18.70
2018-05-09T13:27:08.240Z,17.66
2018-05-09T13:30:11.550Z,17.45
2018-05-09T13:33:14.814Z,17.37
2018-05-09T13:36:18.876Z,17.35
2018-05-09T13:39:22.130Z,17.79
2018-05-09T13:42:26.460Z,17.52
2018-05-09T13:45:30.482Z,17.58
2018-05-09T13:48:35.894Z,17.85
2018-05-09T13:51:40.118Z,18.04
2018-05-09T13:54:46.326Z,18.62
2018-05-09T13:57:49.658Z,19.23
2018-05-09T14:00:52.915Z,19.25
2018-05-09T14:03:56.198Z,19.21
2018-05-09T14:07:00.222Z,18.86
2018-05-09T14:10:04.319Z,19.32
2018-05-09T14:13:07.581Z,18.89
2018-05-09T14:16:11.165Z,18.88
2018-05-09T14:19:14.552Z,19.47
2018-05-09T14:22:18.568Z,19.80
2018-05-09T14:25:21.830Z,20.25
2018-05-09T14:28:25.079Z,20.52
2018-05-09T14:31:28.394Z,20.61
2018-05-09T14:34:31.654Z,20.24
2018-05-09T14:37:34.934Z,20.30
2018-05-09T14:40:39.094Z,20.30
2018-05-09T14:43:42.234Z,20.98
2018-05-09T14:46:45.547Z,20.33
2018-05-09T14:49:48.834Z,20.26
2018-05-09T14:52:53.039Z,20.20
2018-05-09T14:55:56.299Z,20.44
2018-05-09T14:59:00.884Z,20.44
2018-05-09T15:02:04.965Z,20.33
2018-05-09T15:05:12.552Z,20.43
2018-05-09T15:08:16.094Z,20.33
2018-05-09T15:11:19.440Z,20.34
2018-05-09T15:14:23.457Z,20.30
2018-05-09T15:17:26.874Z,20.17
2018-05-09T15:20:31.461Z,20.30
2018-05-09T15:23:44.064Z,20.61
2018-05-09T15:26:51.206Z,20.76
2018-05-09T15:29:54.562Z,21.01
2018-05-09T15:32:57.833Z,20.89
2018-05-09T15:36:01.107Z,21.12
2018-05-09T15:39:05.184Z,20.61
2018-05-09T15:42:08.450Z,20.65
2018-05-09T15:45:11.845Z,20.93
2018-05-09T15:48:15.130Z,20.49
2018-05-09T15:51:18.478Z,20.56
2018-05-09T15:54:22.047Z,20.38
2018-05-09T15:57:26.071Z,20.57
2018-05-09T16:00:30.325Z,20.89
2018-05-09T16:03:33.793Z,20.57
2018-05-09T16:06:37.836Z,20.45
2018-05-09T16:09:44.450Z,20.35
2018-05-09T16:12:47.903Z,20.33
2018-05-09T16:15:51.186Z,20.43
2018-05-09T16:18:55.283Z,20.29
2018-05-09T16:22:01.497Z,20.30
2018-05-09T16:25:04.822Z,20.64
2018-05-09T16:28:08.699Z,20.68
2018-05-09T16:31:12.040Z,20.57
2018-05-09T16:34:15.313Z,20.48
2018-05-09T16:37:18.580Z,20.42
2018-05-09T16:40:22.675Z,20.44
2018-05-09T16:43:26.186Z,20.43
2018-05-09T16:46:30.256Z,20.52
2018-05-09T16:49:33.506Z,21.26
2018-05-09T16:52:36.816Z,23.09
2018-05-09T16:55:40.070Z,26.40
2018-05-09T16:58:43.412Z,26.13
2018-05-09T17:01:46.718Z,24.67
2018-05-09T17:04:49.994Z,22.92
2018-05-09T17:07:54.021Z,22.87
2018-05-09T17:10:58.045Z,23.01
2018-05-09T17:14:01.302Z,23.03
2018-05-09T17:17:04.566Z,23.17
2018-05-09T17:20:07.823Z,22.62
2018-05-09T17:23:11.089Z,21.48
2018-05-09T17:26:14.364Z,21.01
2018-05-09T17:29:17.680Z,20.48
2018-05-09T17:32:20.944Z,20.25
2018-05-09T17:35:24.983Z,20.13
2018-05-09T17:38:28.267Z,20.02
2018-05-09T17:41:32.281Z,19.89
2018-05-09T17:44:36.299Z,19.72
2018-05-09T17:47:40.325Z,19.45
2018-05-09T17:50:43.606Z,19.27
2018-05-09T17:53:46.914Z,18.74
2018-05-09T17:56:50.198Z,18.55
2018-05-09T17:59:54.209Z,18.41
2018-05-09T18:02:58.236Z,18.10
2018-05-09T18:06:02.260Z,17.98
2018-05-09T18:09:06.252Z,17.96
2018-05-09T18:12:09.551Z,17.74
2018-05-09T18:15:13.598Z,17.69
2018-05-09T18:18:16.905Z,17.68
2018-05-09T18:21:20.173Z,17.69
2018-05-09T18:24:23.429Z,17.54
2018-05-09T18:27:27.445Z,17.48
2018-05-09T18:30:30.745Z,17.38
2018-05-09T18:33:34.839Z,17.15
2018-05-09T18:36:38.078Z,16.92
2018-05-09T18:39:41.330Z,16.65
2018-05-09T18:42:44.598Z,16.61
2018-05-09T18:45:47.853Z,16.53
2018-05-09T18:48:51.866Z,16.47
2018-05-09T18:51:55.889Z,16.39
2018-05-09T18:54:59.930Z,16.22
2018-05-09T18:58:03.183Z,16.20
2018-05-09T19:01:06.445Z,16.10
2018-05-09T19:04:09.723Z,16.02
2018-05-09T19:07:12.991Z,15.99
2018-05-09T19:10:16.246Z,15.99
2018-05-09T19:13:19.558Z,15.90
2018-05-09T19:16:22.969Z,15.81
2018-05-09T19:19:26.244Z,15.75
2018-05-09T19:22:30.286Z,15.62
2018-05-09T19:25:33.545Z,15.62
2018-05-09T19:28:37.133Z,15.58
2018-05-09T19:31:40.363Z,15.48
2018-05-09T19:34:44.491Z,15.35
2018-05-09T19:37:48.516Z,15.34
2018-05-09T19:40:51.993Z,15.22
2018-05-09T19:43:55.314Z,15.06
2018-05-09T19:46:58.609Z,14.99
2018-05-09T19:50:02.884Z,14.97
2018-05-09T19:53:06.157Z,14.90
2018-05-09T19:56:09.465Z,14.86
2018-05-09T19:59:13.747Z,14.77
2018-05-09T20:02:17.783Z,14.65
2018-05-09T20:05:21.056Z,14.55
2018-05-09T20:08:25.075Z,14.50
2018-05-09T20:11:29.166Z,14.38
2018-05-09T20:14:32.430Z,14.29
2018-05-09T20:17:35.689Z,14.30
2018-05-09T20:20:39.734Z,14.23
2018-05-09T20:23:43.065Z,14.11
2018-05-09T20:26:46.292Z,14.08
2018-05-09T20:29:50.307Z,14.04
2018-05-09T20:32:54.339Z,13.98
2018-05-09T20:35:57.645Z,13.94
2018-05-09T20:39:01.683Z,13.88
2018-05-09T20:42:05.798Z,13.82
2018-05-09T20:45:09.814Z,13.83
2018-05-09T20:48:13.206Z,13.80
2018-05-09T20:51:17.305Z,13.82
2018-05-09T20:54:20.568Z,13.79
2018-05-09T20:57:23.826Z,13.73
2018-05-09T21:00:27.076Z,13.71
2018-05-09T21:03:30.457Z,13.58
2018-05-09T21:06:34.507Z,13.62
2018-05-09T21:09:38.588Z,13.54
2018-05-09T21:12:41.839Z,13.44
2018-05-09T21:15:45.085Z,13.44
2018-05-09T21:18:48.344Z,13.36
2018-05-09T21:21:51.600Z,13.31
2018-05-09T21:24:56.396Z,13.29
2018-05-09T21:27:59.727Z,13.18
2018-05-09T21:31:03.193Z,13.20
2018-05-09T21:34:06.562Z,13.21
2018-05-09T21:40:20.572Z,13.24
2018-05-09T21:43:24.622Z,13.26
2018-05-09T21:46:27.902Z,13.27
2018-05-09T21:49:31.219Z,13.28
2018-05-09T21:52:34.711Z,13.30
2018-05-09T21:55:38.797Z,13.26
2018-05-09T21:58:42.836Z,13.17
2018-05-09T22:01:56.246Z,13.09
2018-05-09T22:04:59.677Z,13.07
2018-05-09T22:08:03.302Z,13.07
2018-05-09T22:11:06.563Z,13.05
2018-05-09T22:14:09.866Z,12.95
2018-05-09T22:17:13.113Z,12.82
2018-05-09T22:20:16.371Z,12.77
2018-05-09T22:23:19.727Z,12.14
2018-05-09T22:26:23.070Z,11.82
2018-05-09T22:29:26.396Z,12.01
2018-05-09T22:32:30.430Z,11.96
2018-05-09T22:35:33.693Z,12.07
2018-05-09T22:38:37.839Z,11.97
2018-05-09T22:41:41.085Z,11.78
2018-05-09T22:44:44.338Z,11.67
2018-05-09T22:47:56.975Z,11.67
2018-05-09T22:51:22.928Z,11.68
2018-05-09T22:54:27.406Z,11.78
2018-05-09T22:57:30.681Z,11.78
2018-05-09T23:00:33.936Z,11.72
2018-05-09T23:03:37.206Z,11.68
2018-05-09T23:06:40.455Z,11.71
2018-05-09T23:09:43.781Z,11.57
2018-05-09T23:12:47.811Z,11.55
2018-05-09T23:15:51.060Z,11.57
2018-05-09T23:18:54.317Z,11.58
2018-05-09T23:21:57.599Z,11.52
2018-05-09T23:25:01.619Z,11.52
2018-05-09T23:28:05.663Z,11.47
2018-05-09T23:31:08.951Z,11.37
2018-05-09T23:34:12.209Z,11.48
2018-05-09T23:37:15.463Z,11.41
2018-05-09T23:40:18.716Z,11.43
2018-05-09T23:43:21.974Z,11.42
2018-05-09T23:46:25.234Z,11.48
2018-05-09T23:49:29.244Z,11.43
2018-05-09T23:52:32.529Z,11.34
2018-05-09T23:55:35.833Z,11.33
2018-05-09T23:58:39.173Z,11.39
